Adrar, Algeria
Current Conditions -  °F | °C
As of 6:00 PM on Saturday 25 Oct 2014 (Local Time) from DAUA Reporting Station
Clear Clear  
Wind Chill: 88°   Ceiling: Unl
Heat Index: 88°   Visibility: 6mi
Dew Point: 48°   Wind: 8mph
Humidity: 25%   Direction: 10°N
Pressure: 30.03"   Gusts: NA
Location:  27.87°N, 0.29°W
Report Text: DAUA 251700Z 01007KT CAVOK 31/09 Q1017
Loading
Personal Weather Stations






























Interactive Weather Map
Tropical Storm Tracking
New forecast layout! Learn more

10-Day Weather Forecast

Advertisements
Track Severe Weather on mobile